Time;durP1;ratioP1;P1;durP2;ratioP2;P2;SDS_P1;SDS_P2;PMS_P1;PMS_P2;Temp;Humidity;BMP_temperature;BMP_pressure;BME280_temperature;BME280_humidity;BME280_pressure;Samples;Min_cycle;Max_cycle;Signal;HPM_P1;HPM_P2
2023/11/02 00:01:35;;;;;;;3.30;2.70;;;;;;;8.90;76.85;98874.55;107243;1254;65801;-36
2023/11/02 00:04:03;;;;;;;3.10;1.90;;;;;;;8.87;77.00;98875.73;107216;1256;73131;-36
2023/11/02 00:06:34;;;;;;;4.60;2.80;;;;;;;8.84;76.78;98878.70;107297;1258;60456;-36
2023/11/02 00:09:21;;;;;;;4.50;2.70;;;;;;;8.82;76.76;98879.98;107294;1255;60379;-36
2023/11/02 00:11:53;;;;;;;3.50;2.40;;;;;;;8.88;76.53;98879.00;107260;1255;73870;-37
2023/11/02 00:14:22;;;;;;;5.20;2.90;;;;;;;8.92;76.11;98879.06;107316;1257;67718;-37
2023/11/02 00:16:49;;;;;;;5.10;2.70;;;;;;;8.90;76.21;98881.80;107317;1260;72664;-37
2023/11/02 00:19:23;;;;;;;6.70;2.80;;;;;;;8.86;76.40;98883.98;107081;1257;60389;-36
2023/11/02 00:21:51;;;;;;;5.50;2.80;;;;;;;8.83;76.64;98886.31;107153;1254;60427;-37
2023/11/02 00:24:18;;;;;;;7.80;2.80;;;;;;;8.82;76.31;98889.01;107273;1260;73883;-37
2023/11/02 00:26:46;;;;;;;5.40;2.50;;;;;;;8.85;76.01;98890.00;107255;1257;66310;-37
2023/11/02 00:29:14;;;;;;;2.80;2.50;;;;;;;8.85;75.76;98890.14;107257;1257;72736;-37
2023/11/02 00:31:41;;;;;;;4.60;2.60;;;;;;;8.81;75.62;98890.85;107163;1257;60417;-37
2023/11/02 00:34:10;;;;;;;7.20;2.90;;;;;;;8.77;75.58;98890.53;107288;1256;60358;-37
2023/11/02 00:36:38;;;;;;;6.40;2.70;;;;;;;8.72;75.38;98890.44;107247;1256;73843;-37
2023/11/02 00:39:05;;;;;;;3.40;2.40;;;;;;;8.67;75.29;98894.52;107158;1254;67699;-37
2023/11/02 00:41:33;;;;;;;4.00;2.40;;;;;;;8.69;74.97;98891.62;107279;1257;72509;-37
2023/11/02 00:44:01;;;;;;;3.80;2.20;;;;;;;8.70;74.91;98892.81;107123;1254;60395;-37
2023/11/02 00:46:29;;;;;;;4.00;2.30;;;;;;;8.65;74.87;98892.16;107343;1257;60419;-36
2023/11/02 00:48:56;;;;;;;3.40;2.30;;;;;;;8.58;74.94;98892.11;107063;1254;73042;-37
2023/11/02 00:51:30;;;;;;;4.30;2.30;;;;;;;8.53;75.03;98893.80;107236;1257;67562;-37
2023/11/02 00:54:01;;;;;;;2.90;2.20;;;;;;;8.48;75.05;98894.37;107302;1260;71331;-35
2023/11/02 00:56:31;;;;;;;5.30;2.20;;;;;;;8.48;74.86;98893.84;107152;1257;61703;-37
2023/11/02 00:59:00;;;;;;;3.70;2.30;;;;;;;8.49;74.60;98898.04;107296;1256;60296;-36
2023/11/02 01:01:28;;;;;;;3.10;2.30;;;;;;;8.47;74.66;98895.05;107396;1254;72566;-37
2023/11/02 01:03:57;;;;;;;3.30;2.10;;;;;;;8.39;74.60;98896.45;107384;1255;66882;-37
2023/11/02 01:06:29;;;;;;;3.70;2.30;;;;;;;8.30;74.48;98891.71;107314;1257;71443;-36
2023/11/02 01:09:09;;;;;;;4.40;2.20;;;;;;;8.22;74.61;98897.47;107204;1254;61680;-37
2023/11/02 01:11:36;;;;;;;5.30;2.00;;;;;;;8.19;74.40;98897.85;107165;1257;60956;-36
2023/11/02 01:14:13;;;;;;;3.20;2.00;;;;;;;8.15;74.33;98900.41;107059;1255;73889;-37
2023/11/02 01:16:41;;;;;;;4.20;2.20;;;;;;;8.07;74.38;98900.15;107201;1256;67570;-37
2023/11/02 01:19:41;;;;;;;4.90;2.20;;;;;;;7.99;74.47;98906.39;107216;1257;72670;-36
2023/11/02 01:22:34;;;;;;;3.30;2.50;;;;;;;7.88;74.42;98907.14;107274;1260;60421;-37
2023/11/02 01:25:05;;;;;;;3.10;2.20;;;;;;;7.76;74.60;98906.34;107249;1257;60428;-36
2023/11/02 01:27:33;;;;;;;4.30;1.80;;;;;;;7.73;74.54;98906.36;107269;1254;72626;-36
2023/11/02 01:30:24;;;;;;;4.30;2.20;;;;;;;7.69;74.60;98904.34;107273;1255;67607;-36
2023/11/02 01:32:52;;;;;;;3.60;2.00;;;;;;;7.60;74.90;98900.04;107001;1256;71468;-36
2023/11/02 01:35:41;;;;;;;4.60;2.10;;;;;;;7.53;75.03;98902.95;107083;1257;60099;-37
2023/11/02 01:38:13;;;;;;;7.60;2.20;;;;;;;7.44;75.00;98902.51;107230;1254;60424;-36
2023/11/02 01:40:49;;;;;;;4.00;2.20;;;;;;;7.36;75.11;98905.55;107166;1260;73900;-36
2023/11/02 01:43:31;;;;;;;3.10;2.30;;;;;;;7.33;75.02;98909.88;107149;1254;66597;-36
2023/11/02 01:46:01;;;;;;;4.30;2.10;;;;;;;7.27;75.01;98913.60;107199;1257;72744;-36
2023/11/02 01:48:34;;;;;;;8.40;2.30;;;;;;;7.18;75.21;98912.67;107252;1255;60556;-36
2023/11/02 01:51:04;;;;;;;3.60;2.40;;;;;;;7.08;75.35;98917.35;107305;1257;59777;-36
2023/11/02 01:53:53;;;;;;;2.70;2.10;;;;;;;6.99;75.48;98913.57;107301;1257;73941;-36
2023/11/02 01:56:43;;;;;;;4.40;2.20;;;;;;;6.88;75.78;98910.75;107262;1257;66321;-36
2023/11/02 01:59:32;;;;;;;3.70;2.10;;;;;;;6.92;75.71;98917.46;107255;1260;72704;-37
2023/11/02 02:02:12;;;;;;;2.60;1.90;;;;;;;6.90;75.80;98917.88;107147;1260;60296;-36
2023/11/02 02:04:46;;;;;;;4.90;2.50;;;;;;;6.81;75.79;98920.55;107302;1257;59601;-37
2023/11/02 02:07:27;;;;;;;3.70;2.20;;;;;;;6.70;75.87;98921.48;107291;1257;72475;-37
2023/11/02 02:10:15;;;;;;;4.90;2.30;;;;;;;6.60;76.06;98922.23;107312;1260;66283;-36
2023/11/02 02:12:59;;;;;;;6.60;2.30;;;;;;;6.53;76.20;98925.04;107273;1257;72668;-36
2023/11/02 02:15:52;;;;;;;5.40;1.70;;;;;;;6.55;75.97;98929.55;107266;1257;60414;-37
2023/11/02 02:18:26;;;;;;;3.10;1.70;;;;;;;6.53;75.96;98928.13;107066;1256;60430;-36
2023/11/02 02:20:58;;;;;;;3.00;2.20;;;;;;;6.46;75.99;98932.48;107137;1257;74183;-36
2023/11/02 02:23:31;;;;;;;2.50;1.90;;;;;;;6.39;76.11;98926.96;107097;1257;67892;-36
2023/11/02 02:26:28;;;;;;;2.90;2.00;;;;;;;6.34;76.17;98923.73;107071;1257;72729;-36
2023/11/02 02:29:41;;;;;;;4.90;1.90;;;;;;;6.29;76.31;98922.22;107183;1257;60900;-37
2023/11/02 02:32:30;;;;;;;4.40;2.10;;;;;;;6.31;76.13;98925.52;107034;1257;60395;-36
2023/11/02 02:35:19;;;;;;;9.40;2.50;;;;;;;6.29;76.26;98931.06;107141;1254;73828;-36
2023/11/02 02:37:53;;;;;;;2.50;2.20;;;;;;;6.23;76.46;98929.73;107092;1257;66445;-36
2023/11/02 02:40:35;;;;;;;3.60;2.10;;;;;;;6.19;76.72;98928.00;107034;1257;72534;-36
2023/11/02 02:43:03;;;;;;;3.60;2.00;;;;;;;6.21;76.94;98933.58;107103;1257;60903;-37
2023/11/02 02:45:33;;;;;;;2.40;2.00;;;;;;;6.28;77.00;98928.58;107007;1257;60451;-37
2023/11/02 02:48:01;;;;;;;3.20;2.00;;;;;;;6.31;76.92;98935.44;107279;1257;73975;-37
2023/11/02 02:50:30;;;;;;;4.60;2.30;;;;;;;6.29;77.10;98938.29;107253;1257;67677;-37
2023/11/02 02:53:01;;;;;;;3.50;1.90;;;;;;;6.27;77.17;98939.44;107257;1258;71383;-37
2023/11/02 02:58:12;;;;;;;5.40;2.20;;;;;;;6.31;77.45;98944.42;104333;1294;601541;-36
2023/11/02 03:00:40;;;;;;;5.60;2.30;;;;;;;6.34;77.36;98948.44;106590;1269;60326;-37
2023/11/02 03:03:07;;;;;;;3.30;2.30;;;;;;;6.35;77.40;98950.31;106692;1264;60054;-36
2023/11/02 03:05:36;;;;;;;3.30;2.40;;;;;;;6.32;77.27;98954.68;106742;1272;71038;-36
2023/11/02 03:08:04;;;;;;;3.10;2.20;;;;;;;6.27;77.29;98956.23;106761;1269;66487;-36
2023/11/02 03:10:33;;;;;;;4.30;2.20;;;;;;;6.24;77.30;98952.98;106671;1267;71529;-36
2023/11/02 03:13:01;;;;;;;4.70;2.20;;;;;;;6.26;77.21;98959.50;106698;1267;183870;-37
2023/11/02 03:15:32;;;;;;;5.40;2.10;;;;;;;6.28;76.93;98959.79;106756;1267;60050;-37
2023/11/02 03:18:07;;;;;;;4.50;2.60;;;;;;;6.23;76.79;98959.89;106845;1267;72263;-36
2023/11/02 03:20:35;;;;;;;5.40;2.40;;;;;;;6.15;76.89;98968.40;106802;1264;66293;-36
2023/11/02 03:23:17;;;;;;;4.40;2.50;;;;;;;6.07;76.87;98960.65;106860;1267;72708;-36
2023/11/02 03:25:57;;;;;;;4.00;2.10;;;;;;;6.02;76.94;98963.39;106792;1267;60899;-36
2023/11/02 03:28:57;;;;;;;2.70;2.10;;;;;;;6.02;76.78;98966.15;106674;1264;59638;-36
2023/11/02 03:31:45;;;;;;;3.30;1.90;;;;;;;6.02;76.84;98968.71;106879;1263;71721;-36
2023/11/02 03:34:23;;;;;;;8.50;2.90;;;;;;;5.98;76.91;98971.84;106845;1269;67932;-37
2023/11/02 03:37:35;;;;;;;8.00;2.60;;;;;;;5.94;77.03;98975.31;106900;1267;72661;-36
2023/11/02 03:40:29;;;;;;;3.00;2.20;;;;;;;5.89;76.88;98974.75;106535;1273;60112;-36
2023/11/02 03:43:09;;;;;;;3.80;2.30;;;;;;;5.85;76.69;98972.16;106718;1264;59226;-36
2023/11/02 03:45:48;;;;;;;;;;;;;;;5.88;76.62;98968.56;106731;1264;73034;-36
2023/11/02 03:48:39;;;;;;;2.70;2.30;;;;;;;5.85;76.89;98971.24;106752;1267;67936;-36
2023/11/02 03:51:13;;;;;;;4.50;2.30;;;;;;;5.78;77.06;98970.48;106728;1262;73186;-37
2023/11/02 03:53:46;;;;;;;4.80;2.20;;;;;;;5.70;77.24;98968.91;106724;1264;60062;-36
2023/11/02 03:56:19;;;;;;;3.50;2.20;;;;;;;5.64;77.52;98968.88;106845;1262;60099;-37
2023/11/02 03:59:03;;;;;;;3.50;2.20;;;;;;;5.65;77.50;98965.48;106873;1267;71783;-36
2023/11/02 04:01:36;;;;;;;3.90;2.40;;;;;;;5.67;77.57;98955.42;106811;1270;66448;-36
2023/11/02 04:04:06;;;;;;;3.10;2.30;;;;;;;5.63;77.79;98956.33;106835;1263;71457;-36
2023/11/02 04:06:57;;;;;;;3.20;2.20;;;;;;;5.62;77.82;98957.15;106858;1264;60149;-36
2023/11/02 04:09:24;;;;;;;;;;;;;;;5.62;77.93;98954.01;106811;1264;60034;-36
2023/11/02 04:11:59;;;;;;;5.10;2.20;;;;;;;5.67;77.71;98960.77;106802;1262;73573;-36
2023/11/02 04:14:26;;;;;;;3.30;2.20;;;;;;;5.74;77.57;98961.48;106813;1264;67737;-36
2023/11/02 04:16:54;;;;;;;4.80;2.20;;;;;;;5.75;77.46;98958.76;106851;1264;71386;-37
2023/11/02 04:19:22;;;;;;;6.00;2.50;;;;;;;5.72;77.27;98958.59;106795;1263;59704;-37
2023/11/02 04:21:50;;;;;;;3.80;2.80;;;;;;;5.68;77.25;98960.03;107233;1257;59528;-37
2023/11/02 04:24:17;;;;;;;4.70;2.60;;;;;;;5.64;77.18;98964.04;107235;1257;71777;-37
2023/11/02 04:26:45;;;;;;;5.00;2.20;;;;;;;5.67;77.19;98963.05;107245;1257;67571;-37
2023/11/02 04:29:13;;;;;;;3.90;2.00;;;;;;;5.71;77.11;98961.56;107221;1260;72713;-37
2023/11/02 04:31:40;;;;;;;5.10;2.50;;;;;;;5.70;77.19;98961.68;107223;1257;60098;-37
2023/11/02 04:34:08;;;;;;;5.30;2.40;;;;;;;5.66;77.32;98963.89;107273;1258;60387;-37
2023/11/02 04:36:36;;;;;;;4.30;2.70;;;;;;;5.63;77.26;98966.93;107245;1257;73413;-37
2023/11/02 04:39:04;;;;;;;5.70;2.50;;;;;;;5.59;77.42;98963.50;107093;1257;66449;-37
2023/11/02 04:41:32;;;;;;;2.50;2.10;;;;;;;5.62;77.18;98962.21;107091;1256;72455;-37
2023/11/02 04:44:00;;;;;;;2.50;2.00;;;;;;;5.65;77.00;98964.10;107223;1257;59841;-37
2023/11/02 04:46:27;;;;;;;4.00;2.60;;;;;;;5.63;76.98;98967.31;107199;1260;60490;-37
2023/11/02 04:48:55;;;;;;;3.70;2.60;;;;;;;5.58;77.19;98968.14;107176;1260;71824;-37
2023/11/02 04:51:23;;;;;;;11.00;2.70;;;;;;;5.51;77.24;98969.14;107266;1258;66278;-37
2023/11/02 04:53:50;;;;;;;5.60;2.80;;;;;;;5.44;77.22;98976.75;107130;1257;70488;-37
2023/11/02 04:56:19;;;;;;;5.10;2.90;;;;;;;5.43;77.23;98977.02;107109;1260;60883;-37
2023/11/02 04:58:47;;;;;;;3.30;2.50;;;;;;;5.46;77.26;98979.20;107179;1256;60035;-37
2023/11/02 05:01:15;;;;;;;4.60;2.60;;;;;;;5.43;77.37;98982.64;107209;1256;73066;-38
2023/11/02 05:03:42;;;;;;;3.00;2.60;;;;;;;5.42;77.47;98990.43;107231;1260;67580;-37
2023/11/02 05:06:10;;;;;;;4.00;2.90;;;;;;;5.40;77.46;98995.59;107222;1261;72713;-37
2023/11/02 05:08:38;;;;;;;3.90;2.80;;;;;;;5.36;77.49;99000.83;107135;1258;60961;-37
2023/11/02 05:11:06;;;;;;;3.70;2.50;;;;;;;5.37;77.65;99002.17;107160;1257;59571;-37
2023/11/02 05:13:33;;;;;;;4.80;2.80;;;;;;;5.38;77.86;99006.36;107231;1257;73093;-37
2023/11/02 05:16:01;;;;;;;3.60;2.70;;;;;;;5.34;78.12;99002.30;107260;1257;68004;-37
2023/11/02 05:18:29;;;;;;;4.40;3.40;;;;;;;5.28;78.38;98998.11;107205;1260;72707;-37
2023/11/02 05:20:57;;;;;;;3.80;2.80;;;;;;;5.23;78.52;98995.73;107232;1256;59695;-37
2023/11/02 05:23:25;;;;;;;3.10;2.60;;;;;;;5.21;78.79;99002.71;107208;1256;60056;-37
2023/11/02 05:25:53;;;;;;;5.50;2.80;;;;;;;5.24;78.66;99005.88;107203;1257;73154;-38
2023/11/02 05:28:21;;;;;;;5.20;3.30;;;;;;;5.31;78.60;99007.10;107234;1257;67611;-37
2023/11/02 05:30:49;;;;;;;5.40;3.50;;;;;;;5.31;78.90;99008.66;107244;1258;70428;-37
2023/11/02 05:33:16;;;;;;;3.70;3.20;;;;;;;5.30;78.96;99007.77;107186;1257;60093;-37
2023/11/02 05:35:44;;;;;;;4.70;3.60;;;;;;;5.30;79.21;99009.16;107250;1257;60037;-37
2023/11/02 05:38:12;;;;;;;5.00;3.30;;;;;;;5.31;79.34;99014.48;107240;1257;73048;-37
2023/11/02 05:40:39;;;;;;;6.00;3.20;;;;;;;5.37;79.42;99018.07;107225;1257;66298;-38
2023/11/02 05:43:08;;;;;;;6.00;4.10;;;;;;;5.45;79.37;99022.50;107248;1257;72413;-37
2023/11/02 05:45:36;;;;;;;6.00;3.40;;;;;;;5.47;79.43;99022.09;107328;1257;60165;-38
2023/11/02 05:48:04;;;;;;;7.60;4.00;;;;;;;5.46;79.76;99030.98;107158;1257;59217;-37
2023/11/02 05:50:32;;;;;;;5.40;3.70;;;;;;;5.44;80.00;99036.36;107181;1257;71705;-38
2023/11/02 05:52:59;;;;;;;5.70;3.80;;;;;;;5.47;80.14;99040.45;107100;1257;67628;-38
2023/11/02 05:55:27;;;;;;;6.80;4.50;;;;;;;5.55;80.24;99045.52;107207;1257;72719;-37
2023/11/02 05:57:55;;;;;;;10.20;4.90;;;;;;;5.60;80.53;99047.27;107324;1257;59601;-37
2023/11/02 06:00:24;;;;;;;10.40;5.50;;;;;;;5.60;80.81;99043.15;107245;1255;59998;-37
2023/11/02 06:02:52;;;;;;;6.90;4.70;;;;;;;5.64;81.04;99046.55;107189;1256;73094;-38
2023/11/02 06:05:19;;;;;;;7.30;4.50;;;;;;;5.71;81.09;99042.33;107246;1257;66370;-37
2023/11/02 06:07:47;;;;;;;6.90;4.40;;;;;;;5.83;80.98;99038.89;107233;1256;71678;-37
2023/11/02 06:10:15;;;;;;;7.40;4.50;;;;;;;5.90;81.09;99044.21;107234;1257;60116;-38
2023/11/02 06:12:42;;;;;;;9.60;4.80;;;;;;;5.95;81.25;99040.29;107163;1258;60055;-38
2023/11/02 06:15:12;;;;;;;8.30;4.40;;;;;;;6.00;81.16;99043.74;106400;1255;1003633;-37
2023/11/02 06:17:39;;;;;;;7.40;3.90;;;;;;;6.04;81.10;99042.66;107201;1258;66420;-37
2023/11/02 06:20:08;;;;;;;5.90;3.70;;;;;;;6.16;80.92;99038.20;107331;1256;72695;-37
2023/11/02 06:22:36;;;;;;;8.40;4.30;;;;;;;6.28;80.90;99037.02;107325;1256;59650;-37
2023/11/02 06:25:05;;;;;;;7.70;4.50;;;;;;;6.35;80.87;99039.00;107276;1256;60087;-38
2023/11/02 06:27:32;;;;;;;6.10;4.20;;;;;;;6.41;80.88;99041.41;107252;1256;73096;-38
2023/11/02 06:30:00;;;;;;;7.10;4.80;;;;;;;6.48;80.80;99043.09;107235;1257;67923;-37
2023/11/02 06:32:28;;;;;;;7.10;4.10;;;;;;;6.62;80.59;99046.64;107246;1256;72713;-37
2023/11/02 06:34:56;;;;;;;9.10;4.30;;;;;;;6.74;80.17;99048.38;107379;1256;60151;-37
2023/11/02 06:37:24;;;;;;;7.80;4.50;;;;;;;6.81;80.06;99049.42;107277;1258;60016;-37
2023/11/02 06:39:51;;;;;;;6.20;4.30;;;;;;;6.85;80.13;99054.71;107221;1257;73080;-36
2023/11/02 06:42:19;;;;;;;6.40;4.30;;;;;;;6.90;80.43;99058.98;107266;1257;66363;-36
2023/11/02 06:44:47;;;;;;;8.50;5.00;;;;;;;6.96;80.69;99059.71;107160;1256;71094;-37
2023/11/02 06:47:15;;;;;;;11.80;5.80;;;;;;;7.08;80.98;99060.27;107119;1256;60385;-36
2023/11/02 06:49:44;;;;;;;9.30;6.50;;;;;;;7.17;81.39;99055.45;107141;1257;59614;-36
2023/11/02 06:52:11;;;;;;;9.50;7.00;;;;;;;7.22;81.75;99054.28;107286;1257;73077;-36
2023/11/02 06:54:41;;;;;;;10.60;7.10;;;;;;;7.25;82.11;99053.28;107226;1257;66299;-36
2023/11/02 06:57:09;;;;;;;;;;;;;;;7.27;82.40;99050.56;107400;1259;73976;-37
2023/11/02 06:59:37;;;;;;;6.90;5.50;;;;;;;7.38;82.41;99054.70;107218;1256;61647;-37
2023/11/02 07:02:04;;;;;;;8.70;5.80;;;;;;;7.48;82.32;99059.27;107258;1257;60022;-36
2023/11/02 07:04:32;;;;;;;10.70;6.50;;;;;;;7.53;82.49;99056.32;107154;1256;72182;-36
2023/11/02 07:07:01;;;;;;;9.60;5.00;;;;;;;7.59;82.84;99050.92;107137;1257;67629;-37
2023/11/02 07:09:29;;;;;;;7.80;6.50;;;;;;;7.66;82.95;99052.11;107157;1260;72698;-37
2023/11/02 07:11:57;;;;;;;10.90;6.70;;;;;;;7.76;82.72;99051.84;107132;1256;60469;-37
2023/11/02 07:14:25;;;;;;;8.60;6.40;;;;;;;7.89;82.46;99052.91;107237;1256;60353;-37
2023/11/02 07:16:52;;;;;;;9.10;7.20;;;;;;;7.97;82.37;99051.70;107305;1256;73823;-37
2023/11/02 07:19:20;;;;;;;11.70;7.00;;;;;;;8.02;82.26;99055.08;107386;1257;67195;-37
2023/11/02 07:21:48;;;;;;;11.70;7.10;;;;;;;8.09;82.14;99052.54;107240;1257;72734;-37
2023/11/02 07:24:15;;;;;;;7.90;6.40;;;;;;;8.20;82.02;99053.42;107248;1257;60415;-38
2023/11/02 07:26:43;;;;;;;8.50;6.00;;;;;;;8.37;81.94;99052.06;107255;1256;60518;-37
2023/11/02 07:29:11;;;;;;;7.90;6.40;;;;;;;8.47;81.70;99054.36;107253;1256;73850;-38
2023/11/02 07:31:40;;;;;;;12.20;6.60;;;;;;;8.53;81.60;99055.83;107210;1256;66281;-38
2023/11/02 07:34:08;;;;;;;11.30;6.60;;;;;;;8.61;81.58;99054.67;107216;1256;71492;-37
2023/11/02 07:36:35;;;;;;;9.80;5.80;;;;;;;8.74;81.25;99051.88;107200;1255;61658;-37
2023/11/02 07:39:04;;;;;;;11.30;6.30;;;;;;;8.89;80.43;99049.08;107265;1256;60415;-37
2023/11/02 07:41:32;;;;;;;17.30;6.60;;;;;;;8.96;80.10;99040.13;107333;1256;73808;-37
2023/11/02 07:44:00;;;;;;;12.50;6.50;;;;;;;9.03;79.89;99047.36;107427;1257;67878;-36
2023/11/02 07:46:27;;;;;;;8.90;5.70;;;;;;;9.09;79.19;99043.55;107155;1256;71428;-36
2023/11/02 07:48:55;;;;;;;7.20;5.40;;;;;;;9.21;78.49;99047.70;107120;1257;61798;-36
2023/11/02 07:51:22;;;;;;;10.60;5.40;;;;;;;9.33;78.33;99048.56;107137;1256;60442;-36
2023/11/02 07:53:51;;;;;;;8.00;5.10;;;;;;;9.40;77.89;99047.84;107314;1259;72631;-36
2023/11/02 07:56:18;;;;;;;11.50;6.10;;;;;;;9.45;77.70;99048.02;107274;1256;66309;-36
2023/11/02 07:58:46;;;;;;;6.70;5.60;;;;;;;9.51;77.01;99044.95;107407;1256;72734;-36
2023/11/02 08:01:18;;;;;;;9.50;6.10;;;;;;;9.57;76.80;99046.60;107199;1256;61707;-36
2023/11/02 08:03:46;;;;;;;8.30;5.50;;;;;;;9.69;76.04;99047.42;107277;1256;60366;-36
2023/11/02 08:06:14;;;;;;;7.50;5.50;;;;;;;9.80;75.86;99050.86;107445;1257;72668;-36
2023/11/02 08:08:44;;;;;;;8.60;4.90;;;;;;;9.87;75.23;99052.92;107250;1256;66685;-36
2023/11/02 08:11:11;;;;;;;10.90;6.10;;;;;;;9.93;74.81;99049.99;107373;1256;73676;-36
2023/11/02 08:13:39;;;;;;;7.90;5.20;;;;;;;10.00;74.08;99055.60;107207;1260;60260;-37
2023/11/02 08:16:08;;;;;;;9.30;5.00;;;;;;;10.07;73.93;99053.02;107194;1256;60550;-36
2023/11/02 08:18:36;;;;;;;6.80;4.50;;;;;;;10.22;73.90;99052.42;107449;1256;72550;-37
2023/11/02 08:21:07;;;;;;;6.30;4.50;;;;;;;10.38;73.19;99059.78;107257;1260;66283;-36
2023/11/02 08:23:35;;;;;;;8.10;4.30;;;;;;;10.48;73.05;99057.98;107381;1256;72702;-37
2023/11/02 08:26:04;;;;;;;7.10;4.50;;;;;;;10.59;73.36;99058.14;107238;1258;62124;-36
2023/11/02 08:28:32;;;;;;;8.30;4.00;;;;;;;10.71;72.58;99058.55;107249;1256;60371;-36
2023/11/02 08:31:01;;;;;;;5.30;3.60;;;;;;;10.79;70.88;99061.44;107227;1256;73916;-36
2023/11/02 08:33:29;;;;;;;7.50;4.10;;;;;;;10.86;70.51;99063.45;107264;1256;69174;-37
2023/11/02 08:35:57;;;;;;;6.50;3.10;;;;;;;10.97;70.72;99063.21;107288;1257;72723;-37
2023/11/02 08:38:24;;;;;;;4.80;3.20;;;;;;;11.06;69.75;99061.92;107304;1256;60213;-37
2023/11/02 08:40:52;;;;;;;8.60;4.10;;;;;;;11.13;69.51;99066.42;107267;1255;60372;-37
2023/11/02 08:43:20;;;;;;;5.50;3.90;;;;;;;11.20;69.98;99061.79;107291;1260;73195;-37
2023/11/02 08:45:48;;;;;;;7.80;3.00;;;;;;;11.28;69.43;99059.70;107257;1260;67608;-37
2023/11/02 08:48:15;;;;;;;6.90;3.00;;;;;;;11.36;68.04;99059.39;107226;1256;72705;-36
2023/11/02 08:50:43;;;;;;;3.70;2.30;;;;;;;11.42;67.55;99059.00;107238;1256;63833;-37
2023/11/02 08:53:11;;;;;;;6.40;2.30;;;;;;;11.53;66.59;99056.08;107282;1256;60374;-36
2023/11/02 08:55:38;;;;;;;4.10;2.20;;;;;;;11.62;66.32;99054.02;107257;1256;73088;-37
2023/11/02 08:58:06;;;;;;;6.30;2.90;;;;;;;11.67;65.81;99057.23;107279;1257;65320;-37
2023/11/02 09:00:33;;;;;;;4.40;2.60;;;;;;;11.72;65.39;99054.89;107238;1256;72747;-36
2023/11/02 09:03:01;;;;;;;11.40;3.50;;;;;;;11.77;64.53;99059.29;107278;1255;60532;-37
2023/11/02 09:05:29;;;;;;;5.50;3.60;;;;;;;11.80;65.18;99050.63;107105;1260;60268;-37
2023/11/02 09:07:57;;;;;;;5.90;4.00;;;;;;;11.83;65.72;99052.44;107215;1255;73848;-37
2023/11/02 09:10:25;;;;;;;5.60;3.40;;;;;;;11.88;66.46;99046.20;107181;1258;65957;-37
2023/11/02 09:12:53;;;;;;;9.50;3.50;;;;;;;12.02;66.88;99042.35;107251;1257;70791;-36
2023/11/02 09:15:21;;;;;;;10.30;3.40;;;;;;;12.15;66.39;99035.95;107244;1255;60510;-37
2023/11/02 09:17:49;;;;;;;4.30;3.40;;;;;;;12.24;65.10;99034.98;107316;1256;60977;-37
2023/11/02 09:20:17;;;;;;;5.90;3.70;;;;;;;12.28;64.63;99036.64;107350;1255;73884;-36
2023/11/02 09:22:44;;;;;;;4.50;3.60;;;;;;;12.32;64.54;99036.20;107283;1256;66810;-37
2023/11/02 09:25:12;;;;;;;5.00;3.60;;;;;;;12.36;64.93;99038.64;107255;1256;72651;-37
2023/11/02 09:27:39;;;;;;;5.60;3.70;;;;;;;12.41;65.20;99035.80;107247;1255;60431;-37
2023/11/02 09:30:08;;;;;;;9.90;3.30;;;;;;;12.49;64.93;99035.85;107271;1260;60009;-36
2023/11/02 09:32:35;;;;;;;4.50;3.20;;;;;;;12.63;64.41;99026.98;107253;1257;73975;-37
2023/11/02 09:35:04;;;;;;;4.80;3.60;;;;;;;12.78;64.25;99024.42;107275;1260;67591;-36
2023/11/02 09:37:32;;;;;;;5.20;4.20;;;;;;;12.88;64.09;99023.61;107445;1256;72680;-37
2023/11/02 09:40:00;;;;;;;9.20;4.10;;;;;;;12.98;63.63;99018.20;107553;1253;60502;-37
2023/11/02 09:42:29;;;;;;;5.60;3.60;;;;;;;13.06;63.86;99012.09;107501;1253;60617;-37
2023/11/02 09:44:57;;;;;;;12.20;4.60;;;;;;;13.15;63.82;99011.91;107485;1254;76071;-37
2023/11/02 09:47:25;;;;;;;6.60;4.50;;;;;;;13.21;63.30;99009.67;107457;1253;67577;-37
2023/11/02 09:49:53;;;;;;;5.70;4.10;;;;;;;13.24;63.24;99006.27;107513;1253;72672;-36
2023/11/02 09:52:21;;;;;;;7.50;3.60;;;;;;;13.28;63.53;99005.34;107591;1253;60530;-37
2023/11/02 09:54:49;;;;;;;7.00;3.50;;;;;;;13.36;62.75;99003.48;107614;1251;60422;-36
2023/11/02 09:57:17;;;;;;;5.60;3.60;;;;;;;13.49;62.21;98998.52;107486;1254;72549;-36
2023/11/02 09:59:46;;;;;;;6.70;3.50;;;;;;;13.55;61.77;98993.87;107381;1258;67602;-37
2023/11/02 10:02:14;;;;;;;5.00;3.60;;;;;;;13.57;61.89;98991.22;107534;1251;71594;-36
2023/11/02 10:04:42;;;;;;;9.10;3.90;;;;;;;13.61;61.52;98985.08;107609;1251;60550;-37
2023/11/02 10:07:13;;;;;;;4.50;3.50;;;;;;;13.65;61.22;98983.20;107624;1252;60452;-36
2023/11/02 10:09:42;;;;;;;6.30;3.20;;;;;;;13.68;61.66;98980.65;107587;1252;73815;-37
2023/11/02 10:12:11;;;;;;;4.00;3.00;;;;;;;13.74;61.38;98980.33;107583;1251;67772;-37
2023/11/02 10:14:39;;;;;;;6.80;3.20;;;;;;;13.83;61.34;98980.80;107593;1253;71437;-37
2023/11/02 10:17:07;;;;;;;6.10;3.40;;;;;;;13.94;61.06;98981.81;107656;1256;60412;-36
2023/11/02 10:19:34;;;;;;;5.60;3.60;;;;;;;14.01;60.15;98983.73;107672;1251;60300;-37
2023/11/02 10:22:03;;;;;;;5.20;3.30;;;;;;;13.99;60.01;98980.86;107626;1251;73871;-37
2023/11/02 10:24:33;;;;;;;8.10;3.30;;;;;;;13.91;60.33;98988.52;107644;1251;66291;-37
2023/11/02 10:27:04;;;;;;;;;;;;;;;13.80;60.28;98985.55;107607;1253;71843;-36
2023/11/02 10:29:32;;;;;;;6.60;3.20;;;;;;;13.69;60.72;98987.11;107588;1251;60176;-36
2023/11/02 10:32:02;;;;;;;5.30;2.80;;;;;;;13.56;61.10;98985.70;107586;1256;62041;-37
2023/11/02 10:34:30;;;;;;;6.00;2.90;;;;;;;13.50;61.21;98990.36;107620;1257;74814;-36
2023/11/02 10:37:00;;;;;;;4.60;2.50;;;;;;;13.43;61.39;98985.76;107513;1251;70217;-36
2023/11/02 10:39:28;;;;;;;3.70;2.40;;;;;;;13.40;61.55;98984.59;107637;1253;72148;-37
2023/11/02 10:42:00;;;;;;;4.60;2.80;;;;;;;13.44;61.54;98983.81;107614;1253;62237;-36
2023/11/02 10:44:30;;;;;;;4.60;2.90;;;;;;;13.53;61.29;98982.89;107619;1252;60340;-37
2023/11/02 10:46:59;;;;;;;5.90;3.00;;;;;;;13.67;61.03;98980.72;107680;1253;74813;-37
2023/11/02 10:49:29;;;;;;;4.80;2.50;;;;;;;13.83;60.54;98975.50;107647;1254;68407;-36
2023/11/02 10:51:58;;;;;;;5.90;3.00;;;;;;;13.95;59.56;98977.06;107674;1253;72775;-37
2023/11/02 10:54:53;;;;;;;5.20;2.90;;;;;;;13.99;58.91;98972.53;107607;1253;60326;-36
2023/11/02 10:57:24;;;;;;;5.60;2.90;;;;;;;13.98;57.99;98972.94;107402;1253;60272;-36
2023/11/02 10:59:52;;;;;;;4.30;2.50;;;;;;;14.02;58.65;98968.55;107575;1252;72672;-37
2023/11/02 11:02:20;;;;;;;3.90;3.00;;;;;;;14.16;58.69;98968.61;107498;1253;69832;-37
2023/11/02 11:04:49;;;;;;;3.80;2.70;;;;;;;14.37;58.36;98966.02;107503;1253;73136;-36
2023/11/02 11:07:16;;;;;;;3.40;2.90;;;;;;;14.66;57.14;98968.43;107410;1252;60433;-36
2023/11/02 11:09:44;;;;;;;3.80;2.70;;;;;;;14.92;55.63;98963.79;107576;1255;59167;-37
2023/11/02 11:12:12;;;;;;;3.80;2.70;;;;;;;15.15;55.28;98956.80;107383;1252;74111;-36
2023/11/02 11:14:40;;;;;;;4.70;2.80;;;;;;;15.43;54.40;98956.06;107511;1253;67791;-37
2023/11/02 11:17:08;;;;;;;4.20;2.90;;;;;;;15.69;53.60;98956.28;107525;1253;72072;-36
2023/11/02 11:19:36;;;;;;;4.80;2.70;;;;;;;15.92;52.12;98960.14;107608;1253;60948;-37
2023/11/02 11:22:13;;;;;;;3.40;2.60;;;;;;;16.08;51.13;98960.86;107610;1253;59334;-36
2023/11/02 11:24:44;;;;;;;4.50;2.70;;;;;;;16.18;51.12;98962.40;107609;1253;73822;-36
2023/11/02 11:27:12;;;;;;;5.20;2.80;;;;;;;16.12;50.89;98957.46;107563;1251;66750;-36
2023/11/02 11:29:41;;;;;;;6.30;2.90;;;;;;;15.96;50.68;98960.19;107593;1253;73899;-36
2023/11/02 11:32:33;;;;;;;4.20;2.60;;;;;;;15.75;50.84;98958.89;107629;1253;61005;-37
2023/11/02 11:35:04;;;;;;;3.30;2.70;;;;;;;15.60;51.28;98954.71;107633;1251;60289;-37
2023/11/02 11:37:37;;;;;;;4.30;2.90;;;;;;;15.62;51.46;98954.62;107647;1254;72650;-37
2023/11/02 11:40:08;;;;;;;9.50;3.20;;;;;;;15.66;50.42;98952.33;107650;1251;66878;-36
2023/11/02 11:43:01;;;;;;;4.30;2.60;;;;;;;15.72;51.19;98952.20;107747;1253;73028;-37
2023/11/02 11:45:36;;;;;;;4.00;2.50;;;;;;;15.93;49.75;98950.30;107575;1252;60465;-36
2023/11/02 11:48:05;;;;;;;4.40;3.00;;;;;;;16.22;49.69;98946.10;107598;1253;60972;-37
2023/11/02 11:50:37;;;;;;;4.10;2.40;;;;;;;16.51;48.49;98940.23;107690;1252;73853;-37
2023/11/02 11:53:21;;;;;;;6.10;2.50;;;;;;;16.80;46.43;98938.17;107611;1252;66440;-37